Time,TemperatureF,DewpointF,PressureIn,WindDirection,WindDirectionDegrees,WindSpeedMPH,WindSpeedGustMPH,Humidity,HourlyPrecipIn,Conditions,Clouds,dailyrainin,SoftwareType,DateUTC
2013-08-24 00:07:00,72.0,66.0,30.10,NE,44,2.0,4.0,80,0.00,,,0.00,weatherlink.com 1.10,2013-08-24 04:07:00,
2013-08-24 00:22:00,71.3,65.0,30.11,NE,46,1.0,3.0,81,0.00,,,0.00,weatherlink.com 1.10,2013-08-24 04:22:00,
2013-08-24 00:37:00,70.7,65.0,30.11,NE,54,1.0,3.0,82,0.00,,,0.00,weatherlink.com 1.10,2013-08-24 04:37:00,
2013-08-24 00:52:00,70.3,65.0,30.11,NE,46,2.0,4.0,82,0.00,,,0.00,weatherlink.com 1.10,2013-08-24 04:52:00,
2013-08-24 01:07:00,70.0,64.0,30.10,NE,47,4.0,4.0,82,0.00,,,0.00,weatherlink.com 1.10,2013-08-24 05:07:00,
2013-08-24 01:22:00,69.7,64.0,30.10,NE,35,3.0,4.0,82,0.00,,,0.00,weatherlink.com 1.10,2013-08-24 05:22:00,
2013-08-24 01:37:00,69.5,63.0,30.11,NE,51,2.0,5.0,81,0.00,,,0.00,weatherlink.com 1.10,2013-08-24 05:37:00,
2013-08-24 01:52:00,69.2,63.0,30.11,NE,50,2.0,3.0,81,0.00,,,0.00,weatherlink.com 1.10,2013-08-24 05:52:00,
2013-08-24 02:07:00,69.0,63.0,30.11,NE,43,2.0,4.0,81,0.00,,,0.00,weatherlink.com 1.10,2013-08-24 06:07:00,
2013-08-24 02:22:00,68.8,62.0,30.11,NE,44,2.0,4.0,80,0.00,,,0.00,weatherlink.com 1.10,2013-08-24 06:22:00,
2013-08-24 02:37:00,68.5,63.0,30.11,NE,43,1.0,3.0,81,0.00,,,0.00,weatherlink.com 1.10,2013-08-24 06:37:00,
2013-08-24 02:52:00,68.0,62.0,30.11,ENE,77,0.0,2.0,81,0.00,,,0.00,weatherlink.com 1.10,2013-08-24 06:52:00,
2013-08-24 03:07:00,67.5,62.0,30.12,ENE,71,2.0,2.0,82,0.00,,,0.00,weatherlink.com 1.10,2013-08-24 07:07:00,
2013-08-24 03:22:00,67.4,62.0,30.12,NE,50,0.0,3.0,82,0.00,,,0.00,weatherlink.com 1.10,2013-08-24 07:22:00,
2013-08-24 03:37:00,67.0,62.0,30.12,NE,56,1.0,3.0,83,0.00,,,0.00,weatherlink.com 1.10,2013-08-24 07:37:00,
2013-08-24 03:52:00,66.9,62.0,30.12,NE,46,1.0,4.0,83,0.00,,,0.00,weatherlink.com 1.10,2013-08-24 07:52:00,
2013-08-24 04:07:00,66.5,62.0,30.12,WNW,283,1.0,2.0,84,0.00,,,0.00,weatherlink.com 1.10,2013-08-24 08:07:00,
2013-08-24 04:22:00,66.3,61.0,30.12,ENE,58,2.0,3.0,84,0.00,,,0.00,weatherlink.com 1.10,2013-08-24 08:22:00,
2013-08-24 04:37:00,66.2,61.0,30.12,NE,44,2.0,2.0,84,0.00,,,0.00,weatherlink.com 1.10,2013-08-24 08:37:00,
2013-08-24 04:53:00,65.7,62.0,30.13,North,1,0.0,1.0,86,0.00,,,0.00,weatherlink.com 1.10,2013-08-24 08:53:00,
2013-08-24 05:08:00,64.8,61.0,30.13,SW,232,0.0,1.0,87,0.00,,,0.00,weatherlink.com 1.10,2013-08-24 09:08:00,
2013-08-24 05:23:00,64.5,61.0,30.14,SW,226,0.0,1.0,88,0.00,,,0.00,weatherlink.com 1.10,2013-08-24 09:23:00,
2013-08-24 05:38:00,64.1,61.0,30.14,WSW,238,0.0,0.0,88,0.00,,,0.00,weatherlink.com 1.10,2013-08-24 09:38:00,
2013-08-24 05:53:00,63.5,61.0,30.14,WSW,238,0.0,1.0,90,0.00,,,0.00,weatherlink.com 1.10,2013-08-24 09:53:00,
2013-08-24 06:08:00,63.2,60.0,30.15,WSW,238,0.0,1.0,90,0.00,,,0.00,weatherlink.com 1.10,2013-08-24 10:08:00,
2013-08-24 06:23:00,62.9,60.0,30.16,North,356,1.0,1.0,91,0.00,,,0.00,weatherlink.com 1.10,2013-08-24 10:23:00,
2013-08-24 06:38:00,62.7,60.0,30.16,North,358,0.0,1.0,91,0.00,,,0.00,weatherlink.com 1.10,2013-08-24 10:38:00,
2013-08-24 06:53:00,62.2,60.0,30.17,North,357,0.0,1.0,92,0.00,,,0.00,weatherlink.com 1.10,2013-08-24 10:53:00,
2013-08-24 07:08:00,61.8,60.0,30.18,North,357,0.0,1.0,93,0.00,,,0.00,weatherlink.com 1.10,2013-08-24 11:08:00,
2013-08-24 07:23:00,61.5,60.0,30.19,North,357,0.0,1.0,94,0.00,,,0.00,weatherlink.com 1.10,2013-08-24 11:23:00,
2013-08-24 07:38:00,61.7,60.0,30.19,North,357,0.0,1.0,94,0.00,,,0.00,weatherlink.com 1.10,2013-08-24 11:38:00,
2013-08-24 07:53:00,61.9,60.0,30.19,North,357,0.0,1.0,94,0.00,,,0.00,weatherlink.com 1.10,2013-08-24 11:53:00,
2013-08-24 08:08:00,62.9,61.0,30.20,NNE,28,0.0,1.0,92,0.00,,,0.00,weatherlink.com 1.10,2013-08-24 12:08:00,
2013-08-24 08:23:00,63.7,62.0,30.20,NNE,27,0.0,0.0,94,0.00,,,0.00,weatherlink.com 1.10,2013-08-24 12:23:00,
2013-08-24 08:38:00,63.9,62.0,30.20,West,266,0.0,0.0,92,0.00,,,0.00,weatherlink.com 1.10,2013-08-24 12:38:00,
2013-08-24 08:53:00,65.0,62.0,30.21,WSW,248,0.0,1.0,91,0.00,,,0.00,weatherlink.com 1.10,2013-08-24 12:53:00,
2013-08-24 09:08:00,65.6,63.0,30.22,WSW,248,0.0,0.0,90,0.00,,,0.00,weatherlink.com 1.10,2013-08-24 13:08:00,
2013-08-24 09:23:00,66.7,64.0,30.22,WSW,249,0.0,0.0,90,0.00,,,0.00,weatherlink.com 1.10,2013-08-24 13:23:00,
2013-08-24 09:38:00,68.0,65.0,30.22,WSW,241,0.0,1.0,89,0.00,,,0.00,weatherlink.com 1.10,2013-08-24 13:38:00,
2013-08-24 09:53:00,70.0,66.0,30.22,SE,137,0.0,1.0,88,0.00,,,0.00,weatherlink.com 1.10,2013-08-24 13:53:00,
2013-08-24 10:08:00,72.8,67.0,30.22,SE,130,0.0,1.0,83,0.00,,,0.00,weatherlink.com 1.10,2013-08-24 14:08:00,
2013-08-24 10:23:00,75.5,69.0,30.22,SE,134,0.0,1.0,81,0.00,,,0.00,weatherlink.com 1.10,2013-08-24 14:23:00,
2013-08-24 10:38:00,76.9,69.0,30.22,SE,143,0.0,2.0,77,0.00,,,0.00,weatherlink.com 1.10,2013-08-24 14:38:00,
2013-08-24 10:53:00,78.6,70.0,30.23,SE,143,0.0,2.0,74,0.00,,,0.00,weatherlink.com 1.10,2013-08-24 14:53:00,
2013-08-24 11:09:00,80.1,70.0,30.23,ESE,123,0.0,1.0,71,0.00,,,0.00,weatherlink.com 1.10,2013-08-24 15:09:00,
2013-08-24 11:24:00,81.1,70.0,30.22,SW,229,0.0,0.0,68,0.00,,,0.00,weatherlink.com 1.10,2013-08-24 15:24:00,
2013-08-24 11:39:00,82.4,69.0,30.22,NE,47,0.0,0.0,64,0.00,,,0.00,weatherlink.com 1.10,2013-08-24 15:39:00,
2013-08-24 11:54:00,82.8,68.0,30.22,East,99,0.0,4.0,61,0.00,,,0.00,weatherlink.com 1.10,2013-08-24 15:54:00,
2013-08-24 12:09:00,83.5,69.0,30.22,SW,235,1.0,2.0,61,0.00,,,0.00,weatherlink.com 1.10,2013-08-24 16:09:00,
2013-08-24 12:24:00,84.0,69.0,30.22,SE,134,0.0,2.0,60,0.00,,,0.00,weatherlink.com 1.10,2013-08-24 16:24:00,
2013-08-24 12:39:00,83.9,68.0,30.21,ESE,113,0.0,2.0,59,0.00,,,0.00,weatherlink.com 1.10,2013-08-24 16:39:00,
2013-08-24 12:54:00,83.7,68.0,30.21,North,9,0.0,2.0,60,0.00,,,0.00,weatherlink.com 1.10,2013-08-24 16:54:00,
2013-08-24 13:09:00,84.4,67.0,30.21,SSE,153,0.0,3.0,57,0.00,,,0.00,weatherlink.com 1.10,2013-08-24 17:09:00,
2013-08-24 13:24:00,84.8,68.0,30.20,NE,51,1.0,2.0,57,0.00,,,0.00,weatherlink.com 1.10,2013-08-24 17:24:00,
2013-08-24 13:39:00,85.6,68.0,30.20,SE,137,0.0,2.0,56,0.00,,,0.00,weatherlink.com 1.10,2013-08-24 17:39:00,
2013-08-24 13:54:00,87.1,67.0,30.20,SSW,198,1.0,2.0,51,0.00,,,0.00,weatherlink.com 1.10,2013-08-24 17:54:00,
2013-08-24 14:09:00,87.9,68.0,30.20,ENE,73,1.0,2.0,52,0.00,,,0.00,weatherlink.com 1.10,2013-08-24 18:09:00,
2013-08-24 14:24:00,87.1,68.0,30.20,NE,49,0.0,4.0,54,0.00,,,0.00,weatherlink.com 1.10,2013-08-24 18:24:00,
2013-08-24 14:39:00,85.2,66.0,30.19,SE,137,2.0,2.0,52,0.00,,,0.00,weatherlink.com 1.10,2013-08-24 18:39:00,
2013-08-24 14:54:00,86.6,66.0,30.19,WSW,238,0.0,3.0,51,0.00,,,0.00,weatherlink.com 1.10,2013-08-24 18:54:00,
2013-08-24 15:09:00,87.2,66.0,30.19,East,100,0.0,2.0,50,0.00,,,0.00,weatherlink.com 1.10,2013-08-24 19:09:00,
2013-08-24 15:24:00,86.7,67.0,30.19,SE,127,1.0,2.0,52,0.00,,,0.00,weatherlink.com 1.10,2013-08-24 19:24:00,
2013-08-24 15:39:00,87.5,65.0,30.19,ESE,114,1.0,3.0,48,0.00,,,0.00,weatherlink.com 1.10,2013-08-24 19:39:00,
2013-08-24 15:54:00,87.2,66.0,30.19,East,91,1.0,2.0,49,0.00,,,0.00,weatherlink.com 1.10,2013-08-24 19:54:00,
2013-08-24 16:09:00,86.5,65.0,30.18,East,95,0.0,3.0,48,0.00,,,0.00,weatherlink.com 1.10,2013-08-24 20:09:00,
2013-08-24 16:24:00,86.8,64.0,30.18,ESE,114,3.0,3.0,46,0.00,,,0.00,weatherlink.com 1.10,2013-08-24 20:24:00,
2013-08-24 16:39:00,86.2,64.0,30.18,ESE,120,1.0,2.0,47,0.00,,,0.00,weatherlink.com 1.10,2013-08-24 20:39:00,
2013-08-24 16:54:00,87.0,64.0,30.18,East,84,1.0,2.0,47,0.00,,,0.00,weatherlink.com 1.10,2013-08-24 20:54:00,
2013-08-24 17:09:00,86.7,64.0,30.18,East,98,1.0,3.0,47,0.00,,,0.00,weatherlink.com 1.10,2013-08-24 21:09:00,
2013-08-24 17:24:00,85.5,64.0,30.18,SE,129,1.0,2.0,49,0.00,,,0.00,weatherlink.com 1.10,2013-08-24 21:24:00,
2013-08-24 17:39:00,86.9,65.0,30.18,NW,306,1.0,1.0,48,0.00,,,0.00,weatherlink.com 1.10,2013-08-24 21:39:00,
2013-08-24 17:54:00,86.4,64.0,30.18,East,85,1.0,2.0,48,0.00,,,0.00,weatherlink.com 1.10,2013-08-24 21:54:00,
2013-08-24 18:09:00,85.7,64.0,30.18,East,84,1.0,1.0,49,0.00,,,0.00,weatherlink.com 1.10,2013-08-24 22:09:00,
2013-08-24 18:24:00,84.8,65.0,30.18,East,97,0.0,1.0,52,0.00,,,0.00,weatherlink.com 1.10,2013-08-24 22:24:00,
2013-08-24 18:39:00,84.6,65.0,30.18,ESE,103,1.0,2.0,52,0.00,,,0.00,weatherlink.com 1.10,2013-08-24 22:39:00,
2013-08-24 18:54:00,83.6,65.0,30.18,ESE,111,1.0,2.0,54,0.00,,,0.00,weatherlink.com 1.10,2013-08-24 22:54:00,
2013-08-24 19:09:00,82.2,65.0,30.18,ESE,105,0.0,1.0,57,0.00,,,0.00,weatherlink.com 1.10,2013-08-24 23:09:00,
2013-08-24 19:24:00,81.9,65.0,30.17,ESE,105,1.0,1.0,56,0.00,,,0.00,weatherlink.com 1.10,2013-08-24 23:24:00,
2013-08-24 19:39:00,80.4,65.0,30.18,East,96,0.0,0.0,59,0.00,,,0.00,weatherlink.com 1.10,2013-08-24 23:39:00,
2013-08-24 19:54:00,78.2,65.0,30.18,East,96,0.0,1.0,64,0.00,,,0.00,weatherlink.com 1.10,2013-08-24 23:54:00,
2013-08-24 20:09:00,77.4,65.0,30.18,East,96,0.0,0.0,65,0.00,,,0.00,weatherlink.com 1.10,2013-08-25 00:09:00,
2013-08-24 20:24:00,77.2,65.0,30.18,East,88,0.0,1.0,65,0.00,,,0.00,weatherlink.com 1.10,2013-08-25 00:24:00,
2013-08-24 20:39:00,76.8,64.0,30.19,East,88,0.0,1.0,65,0.00,,,0.00,weatherlink.com 1.10,2013-08-25 00:39:00,
2013-08-24 20:54:00,76.2,64.0,30.19,East,88,0.0,1.0,66,0.00,,,0.00,weatherlink.com 1.10,2013-08-25 00:54:00,
2013-08-24 21:09:00,75.4,64.0,30.19,East,89,0.0,0.0,67,0.00,,,0.00,weatherlink.com 1.10,2013-08-25 01:09:00,
2013-08-24 21:24:00,74.9,64.0,30.20,East,89,0.0,0.0,68,0.00,,,0.00,weatherlink.com 1.10,2013-08-25 01:24:00,
2013-08-24 21:39:00,74.3,63.0,30.20,East,89,0.0,0.0,69,0.00,,,0.00,weatherlink.com 1.10,2013-08-25 01:39:00,
2013-08-24 21:54:00,73.7,63.0,30.20,East,89,0.0,1.0,69,0.00,,,0.00,weatherlink.com 1.10,2013-08-25 01:54:00,
2013-08-24 22:09:00,73.3,63.0,30.21,East,89,0.0,0.0,70,0.00,,,0.00,weatherlink.com 1.10,2013-08-25 02:09:00,
2013-08-24 22:24:00,72.9,63.0,30.21,East,89,0.0,0.0,70,0.00,,,0.00,weatherlink.com 1.10,2013-08-25 02:24:00,
2013-08-24 22:39:00,72.7,62.0,30.21,East,89,0.0,0.0,70,0.00,,,0.00,weatherlink.com 1.10,2013-08-25 02:39:00,
2013-08-24 22:54:00,72.6,63.0,30.21,East,88,0.0,0.0,71,0.00,,,0.00,weatherlink.com 1.10,2013-08-25 02:54:00,
2013-08-24 23:09:00,72.3,62.0,30.21,East,89,0.0,0.0,71,0.00,,,0.00,weatherlink.com 1.10,2013-08-25 03:09:00,
2013-08-24 23:24:00,72.1,63.0,30.22,East,89,0.0,0.0,72,0.00,,,0.00,weatherlink.com 1.10,2013-08-25 03:24:00,
2013-08-24 23:39:00,71.7,62.0,30.22,East,87,0.0,0.0,72,0.00,,,0.00,weatherlink.com 1.10,2013-08-25 03:39:00,
2013-08-24 23:55:00,70.9,62.0,30.22,East,89,0.0,0.0,74,0.00,,,0.00,weatherlink.com 1.10,2013-08-25 03:55:00,